Time,TemperatureF,DewpointF,PressureIn,WindDirection,WindDirectionDegrees,WindSpeedMPH,WindSpeedGustMPH,Humidity,HourlyPrecipIn,Conditions,Clouds,dailyrainin,SoftwareType,DateUTC
2013-05-19 00:02:00,72.0,61.0,-100.00,SE,145,7.0,12.0,68,0.00,,,-99.99,,2013-05-19 05:02:00,
2013-05-19 00:12:00,71.0,61.0,-100.00,ESE,120,6.0,10.0,71,0.00,,,-99.99,,2013-05-19 05:12:00,
2013-05-19 00:22:00,71.0,61.0,-100.00,ESE,120,6.0,10.0,71,0.00,,,-99.99,,2013-05-19 05:22:00,
2013-05-19 00:32:00,71.0,61.0,-100.00,ESE,120,5.0,9.0,71,0.00,,,-99.99,,2013-05-19 05:32:00,
2013-05-19 00:42:00,71.0,61.0,-100.00,ESE,120,5.0,9.0,71,0.00,,,-99.99,,2013-05-19 05:42:00,
2013-05-19 00:51:00,71.0,61.0,-100.00,ESE,120,5.0,9.0,71,0.00,,,-99.99,,2013-05-19 05:51:00,
2013-05-19 01:02:00,71.0,61.0,-100.00,ESE,120,5.0,9.0,71,0.00,,,-99.99,,2013-05-19 06:02:00,
2013-05-19 01:12:00,69.0,61.0,-100.00,ESE,110,8.0,11.0,75,0.00,,,-99.99,,2013-05-19 06:12:00,
2013-05-19 01:21:00,69.0,61.0,-100.00,ESE,110,8.0,11.0,75,0.00,,,-99.99,,2013-05-19 06:21:00,
2013-05-19 01:32:00,69.0,61.0,-100.00,SE,135,7.0,12.0,76,0.00,,,-99.99,,2013-05-19 06:32:00,
2013-05-19 01:52:00,68.0,61.0,-100.00,SE,135,6.0,10.0,77,0.00,,,-99.99,,2013-05-19 06:52:00,
2013-05-19 02:01:00,68.0,61.0,-100.00,SE,135,6.0,10.0,77,0.00,,,-99.99,,2013-05-19 07:01:00,
2013-05-19 02:11:00,68.0,61.0,-100.00,SE,135,6.0,10.0,77,0.00,,,-99.99,,2013-05-19 07:11:00,
2013-05-19 02:21:00,68.0,61.0,-100.00,SE,135,6.0,10.0,77,0.00,,,-99.99,,2013-05-19 07:21:00,
2013-05-19 03:02:00,66.0,61.0,-100.00,South,170,4.0,7.0,85,0.00,,,-99.99,,2013-05-19 08:02:00,
2013-05-19 03:12:00,66.0,61.0,-100.00,South,170,4.0,7.0,85,0.00,,,-99.99,,2013-05-19 08:12:00,
2013-05-19 03:22:00,66.0,62.0,-100.00,SSE,165,6.0,9.0,85,0.00,,,-99.99,,2013-05-19 08:22:00,
2013-05-19 03:32:00,66.0,62.0,-100.00,SE,145,7.0,11.0,85,0.00,,,-99.99,,2013-05-19 08:32:00,
2013-05-19 03:42:00,66.0,62.0,-100.00,SE,145,7.0,11.0,85,0.00,,,-99.99,,2013-05-19 08:42:00,
2013-05-19 03:52:00,67.0,62.0,-100.00,SE,145,10.0,14.0,83,0.00,,,-99.99,,2013-05-19 08:52:00,
2013-05-19 04:02:00,67.0,62.0,-100.00,SE,145,10.0,14.0,83,0.00,,,-99.99,,2013-05-19 09:02:00,
2013-05-19 04:12:00,67.0,62.0,-100.00,SE,135,7.0,12.0,83,0.00,,,-99.99,,2013-05-19 09:12:00,
2013-05-19 04:21:00,67.0,62.0,-100.00,SE,135,7.0,12.0,83,0.00,,,-99.99,,2013-05-19 09:21:00,
2013-05-19 04:32:00,68.0,62.0,-100.00,ESE,115,9.0,16.0,81,0.00,,,-99.99,,2013-05-19 09:32:00,
2013-05-19 04:43:00,68.0,62.0,-100.00,ESE,115,9.0,16.0,81,0.00,,,-99.99,,2013-05-19 09:43:00,
2013-05-19 04:53:00,69.0,62.0,-100.00,ESE,105,6.0,13.0,80,0.00,,,-99.99,,2013-05-19 09:53:00,
2013-05-19 05:02:00,68.0,62.0,-100.00,SE,125,7.0,11.0,80,0.00,,,-99.99,,2013-05-19 10:02:00,
2013-05-19 05:12:00,68.0,62.0,-100.00,ESE,115,6.0,12.0,80,0.00,,,-99.99,,2013-05-19 10:12:00,
2013-05-19 05:23:00,68.0,62.0,-100.00,SE,135,7.0,11.0,81,0.00,,,-99.99,,2013-05-19 10:23:00,
2013-05-19 05:33:00,66.0,62.0,-100.00,South,170,16.0,32.0,88,0.98,,,-99.99,,2013-05-19 10:33:00,
2013-05-19 05:42:00,66.0,62.0,-100.00,South,170,16.0,32.0,88,0.98,,,-99.99,,2013-05-19 10:42:00,
2013-05-19 05:52:00,66.0,62.0,-100.00,South,170,16.0,32.0,88,0.98,,,-99.99,,2013-05-19 10:52:00,
2013-05-19 06:02:00,63.0,62.0,-100.00,East,100,4.0,9.0,95,0.00,,,-99.99,,2013-05-19 11:02:00,
2013-05-19 06:12:00,63.0,62.0,-100.00,East,100,4.0,9.0,95,0.00,,,-99.99,,2013-05-19 11:12:00,
2013-05-19 06:21:00,63.0,62.0,-100.00,SE,130,7.0,9.0,95,0.04,,,-99.99,,2013-05-19 11:21:00,
2013-05-19 06:32:00,63.0,62.0,-100.00,SE,130,7.0,9.0,95,0.04,,,-99.99,,2013-05-19 11:32:00,
2013-05-19 06:42:00,63.0,62.0,-100.00,SE,130,7.0,9.0,95,0.04,,,-99.99,,2013-05-19 11:42:00,
2013-05-19 06:52:00,63.0,62.0,-100.00,East,95,9.0,17.0,95,0.00,,,-99.99,,2013-05-19 11:52:00,
2013-05-19 07:01:00,63.0,62.0,-100.00,East,95,9.0,17.0,95,0.00,,,-99.99,,2013-05-19 12:01:00,
2013-05-19 07:11:00,63.0,62.0,-100.00,East,95,9.0,17.0,95,0.00,,,-99.99,,2013-05-19 12:11:00,
2013-05-19 07:22:00,63.0,62.0,-100.00,ESE,115,7.0,14.0,95,0.00,,,-99.99,,2013-05-19 12:22:00,
2013-05-19 07:32:00,63.0,62.0,-100.00,SE,145,7.0,14.0,95,0.00,,,-99.99,,2013-05-19 12:32:00,
2013-05-19 07:42:00,63.0,62.0,-100.00,SE,145,7.0,14.0,95,0.00,,,-99.99,,2013-05-19 12:42:00,
2013-05-19 07:52:00,63.0,62.0,-100.00,SE,145,7.0,14.0,95,0.00,,,-99.99,,2013-05-19 12:52:00,
2013-05-19 08:01:00,63.0,62.0,-100.00,SE,145,7.0,14.0,95,0.00,,,-99.99,,2013-05-19 13:01:00,
2013-05-19 08:11:00,63.0,62.0,-100.00,SE,145,7.0,14.0,95,0.00,,,-99.99,,2013-05-19 13:11:00,
2013-05-19 08:42:00,65.0,64.0,-100.00,SE,145,12.0,18.0,95,0.00,,,-99.99,,2013-05-19 13:42:00,
2013-05-19 08:52:00,65.0,64.0,-100.00,SE,145,12.0,18.0,95,0.00,,,-99.99,,2013-05-19 13:52:00,
2013-05-19 09:02:00,65.0,64.0,-100.00,SE,145,12.0,18.0,95,0.00,,,-99.99,,2013-05-19 14:02:00,
2013-05-19 09:11:00,65.0,64.0,-100.00,SE,145,12.0,18.0,95,0.00,,,-99.99,,2013-05-19 14:11:00,
2013-05-19 09:21:00,66.0,64.0,-100.00,SE,145,14.0,21.0,93,0.00,,,-99.99,,2013-05-19 14:21:00,
2013-05-19 09:32:00,66.0,64.0,-100.00,SE,145,14.0,21.0,93,0.00,,,-99.99,,2013-05-19 14:32:00,
2013-05-19 09:42:00,66.0,64.0,-100.00,SE,145,14.0,21.0,93,0.00,,,-99.99,,2013-05-19 14:42:00,
2013-05-19 09:52:00,66.0,64.0,-100.00,SE,145,14.0,21.0,93,0.00,,,-99.99,,2013-05-19 14:52:00,
2013-05-19 10:01:00,66.0,64.0,-100.00,SE,145,14.0,21.0,93,0.00,,,-99.99,,2013-05-19 15:01:00,
2013-05-19 10:11:00,69.0,65.0,-100.00,SE,130,7.0,19.0,85,0.00,,,-99.99,,2013-05-19 15:11:00,
2013-05-19 10:22:00,69.0,64.0,-100.00,ESE,115,9.0,14.0,86,0.00,,,-99.99,,2013-05-19 15:22:00,
2013-05-19 10:33:00,69.0,65.0,-100.00,ESE,120,11.0,21.0,87,0.00,,,-99.99,,2013-05-19 15:33:00,
2013-05-19 10:43:00,69.0,65.0,-100.00,ESE,120,11.0,21.0,87,0.00,,,-99.99,,2013-05-19 15:43:00,
2013-05-19 10:53:00,69.0,65.0,-100.00,ESE,120,11.0,21.0,87,0.00,,,-99.99,,2013-05-19 15:53:00,
2013-05-19 11:03:00,72.0,67.0,-100.00,South,170,12.0,21.0,84,0.00,,,-99.99,,2013-05-19 16:03:00,
2013-05-19 11:12:00,74.0,68.0,-100.00,SSE,150,13.0,24.0,83,0.00,,,-99.99,,2013-05-19 16:12:00,
2013-05-19 11:23:00,74.0,68.0,-100.00,SSE,150,13.0,24.0,83,0.00,,,-99.99,,2013-05-19 16:23:00,
2013-05-19 11:32:00,75.0,67.0,-100.00,SSE,155,15.0,21.0,77,0.00,,,-99.99,,2013-05-19 16:32:00,
2013-05-19 11:42:00,75.0,67.0,-100.00,SSE,155,15.0,21.0,77,0.00,,,-99.99,,2013-05-19 16:42:00,
2013-05-19 11:52:00,75.0,67.0,-100.00,SSE,155,15.0,21.0,77,0.00,,,-99.99,,2013-05-19 16:52:00,
2013-05-19 12:02:00,75.0,67.0,-100.00,SSE,155,15.0,21.0,77,0.00,,,-99.99,,2013-05-19 17:02:00,
2013-05-19 12:12:00,76.0,67.0,-100.00,SE,145,18.0,29.0,73,0.00,,,-99.99,,2013-05-19 17:12:00,
2013-05-19 12:22:00,76.0,67.0,-100.00,SE,145,18.0,29.0,73,0.00,,,-99.99,,2013-05-19 17:22:00,
2013-05-19 12:32:00,76.0,67.0,-100.00,SE,145,18.0,29.0,73,0.00,,,-99.99,,2013-05-19 17:32:00,
2013-05-19 12:42:00,76.0,67.0,-100.00,SE,145,18.0,29.0,73,0.00,,,-99.99,,2013-05-19 17:42:00,
2013-05-19 12:52:00,77.0,67.0,-100.00,SSE,155,18.0,29.0,72,0.00,,,-99.99,,2013-05-19 17:52:00,
2013-05-19 13:02:00,77.0,67.0,-100.00,SE,125,16.0,26.0,70,0.00,,,-99.99,,2013-05-19 18:02:00,
2013-05-19 13:12:00,77.0,67.0,-100.00,SE,125,16.0,26.0,70,0.00,,,-99.99,,2013-05-19 18:12:00,
2013-05-19 13:22:00,77.0,67.0,-100.00,SSE,150,14.0,22.0,70,0.00,,,-99.99,,2013-05-19 18:22:00,
2013-05-19 13:32:00,77.0,67.0,-100.00,SSE,150,14.0,22.0,70,0.00,,,-99.99,,2013-05-19 18:32:00,
2013-05-19 13:42:00,78.0,67.0,-100.00,SSE,150,14.0,30.0,71,0.00,,,-99.99,,2013-05-19 18:42:00,
2013-05-19 13:53:00,78.0,67.0,-100.00,SSE,150,14.0,30.0,71,0.00,,,-99.99,,2013-05-19 18:53:00,
2013-05-19 14:01:00,78.0,67.0,-100.00,SE,145,17.0,28.0,68,0.00,,,-99.99,,2013-05-19 19:01:00,
2013-05-19 14:11:00,78.0,67.0,-100.00,SE,140,11.0,26.0,70,0.00,,,-99.99,,2013-05-19 19:11:00,
2013-05-19 14:21:00,78.0,67.0,-100.00,SSE,150,17.0,27.0,71,0.00,,,-99.99,,2013-05-19 19:21:00,
2013-05-19 14:32:00,78.0,67.0,-100.00,SSE,150,17.0,27.0,71,0.00,,,-99.99,,2013-05-19 19:32:00,
2013-05-19 14:42:00,80.0,68.0,-100.00,SE,135,16.0,25.0,68,0.00,,,-99.99,,2013-05-19 19:42:00,
2013-05-19 14:52:00,80.0,68.0,-100.00,SE,135,16.0,25.0,68,0.00,,,-99.99,,2013-05-19 19:52:00,
2013-05-19 15:02:00,81.0,67.0,-100.00,SE,140,15.0,29.0,62,0.00,,,-99.99,,2013-05-19 20:02:00,
2013-05-19 15:11:00,81.0,67.0,-100.00,SE,140,15.0,29.0,62,0.00,,,-99.99,,2013-05-19 20:11:00,
2013-05-19 15:21:00,80.0,67.0,-100.00,SSE,150,20.0,34.0,63,0.00,,,-99.99,,2013-05-19 20:21:00,
2013-05-19 15:32:00,80.0,67.0,-100.00,SE,145,14.0,35.0,65,0.00,,,-99.99,,2013-05-19 20:32:00,
2013-05-19 15:42:00,80.0,68.0,-100.00,SE,135,14.0,31.0,67,0.00,,,-99.99,,2013-05-19 20:42:00,
2013-05-19 15:52:00,80.0,68.0,-100.00,SE,135,14.0,31.0,67,0.00,,,-99.99,,2013-05-19 20:52:00,
2013-05-19 16:02:00,80.0,66.0,-100.00,SE,145,14.0,38.0,62,0.00,,,-99.99,,2013-05-19 21:02:00,
2013-05-19 16:11:00,71.0,64.0,-100.00,SSE,155,22.0,37.0,76,0.13,,,-99.99,,2013-05-19 21:11:00,
2013-05-19 16:22:00,74.0,66.0,-100.00,SSE,160,11.0,24.0,73,0.00,,,-99.99,,2013-05-19 21:22:00,
2013-05-19 16:32:00,78.0,69.0,-100.00,SSE,155,10.0,18.0,72,0.00,,,-99.99,,2013-05-19 21:32:00,
2013-05-19 16:43:00,78.0,69.0,-100.00,SSE,155,10.0,18.0,72,0.00,,,-99.99,,2013-05-19 21:43:00,
2013-05-19 16:53:00,80.0,64.0,-100.00,SSE,165,18.0,30.0,57,0.00,,,-99.99,,2013-05-19 21:53:00,
2013-05-19 17:03:00,81.0,64.0,-100.00,SSE,160,14.0,27.0,56,0.00,,,-99.99,,2013-05-19 22:03:00,
2013-05-19 17:12:00,81.0,64.0,-100.00,SSE,160,14.0,27.0,56,0.00,,,-99.99,,2013-05-19 22:12:00,
2013-05-19 17:23:00,81.0,65.0,-100.00,SSE,160,14.0,26.0,57,0.00,,,-99.99,,2013-05-19 22:23:00,
2013-05-19 17:33:00,81.0,65.0,-100.00,South,175,16.0,23.0,58,0.00,,,-99.99,,2013-05-19 22:33:00,
2013-05-19 17:42:00,81.0,65.0,-100.00,South,170,16.0,26.0,57,0.00,,,-99.99,,2013-05-19 22:42:00,
2013-05-19 17:53:00,81.0,65.0,-100.00,South,170,16.0,26.0,57,0.00,,,-99.99,,2013-05-19 22:53:00,
2013-05-19 18:02:00,81.0,65.0,-100.00,South,170,16.0,26.0,57,0.00,,,-99.99,,2013-05-19 23:02:00,
2013-05-19 18:11:00,81.0,65.0,-100.00,South,170,16.0,26.0,57,0.00,,,-99.99,,2013-05-19 23:11:00,
2013-05-19 18:21:00,81.0,65.0,-100.00,South,170,16.0,26.0,57,0.00,,,-99.99,,2013-05-19 23:21:00,
2013-05-19 18:32:00,81.0,65.0,-100.00,SSE,165,13.0,26.0,58,0.00,,,-99.99,,2013-05-19 23:32:00,
2013-05-19 18:42:00,81.0,65.0,-100.00,SSE,165,9.0,23.0,58,0.00,,,-99.99,,2013-05-19 23:42:00,
2013-05-19 18:52:00,81.0,65.0,-100.00,SSE,165,9.0,23.0,58,0.00,,,-99.99,,2013-05-19 23:52:00,
2013-05-19 19:02:00,79.0,67.0,-100.00,SSE,165,11.0,24.0,65,0.00,,,-99.99,,2013-05-20 00:02:00,
2013-05-19 19:11:00,79.0,67.0,-100.00,SSE,165,11.0,24.0,65,0.00,,,-99.99,,2013-05-20 00:11:00,
2013-05-19 19:21:00,79.0,67.0,-100.00,SSE,165,10.0,21.0,65,0.00,,,-99.99,,2013-05-20 00:21:00,
2013-05-19 19:32:00,79.0,66.0,-100.00,SE,145,12.0,19.0,65,0.00,,,-99.99,,2013-05-20 00:32:00,
2013-05-19 19:42:00,79.0,66.0,-100.00,SE,145,12.0,19.0,65,0.00,,,-99.99,,2013-05-20 00:42:00,
2013-05-19 19:52:00,78.0,67.0,-100.00,SSE,155,12.0,20.0,68,0.00,,,-99.99,,2013-05-20 00:52:00,
2013-05-19 20:01:00,78.0,67.0,-100.00,SSE,155,12.0,20.0,68,0.00,,,-99.99,,2013-05-20 01:01:00,
2013-05-19 20:11:00,78.0,67.0,-100.00,SSE,160,12.0,17.0,69,0.00,,,-99.99,,2013-05-20 01:11:00,
2013-05-19 20:21:00,78.0,67.0,-100.00,SE,140,10.0,16.0,70,0.00,,,-99.99,,2013-05-20 01:21:00,
2013-05-19 20:31:00,77.0,67.0,-100.00,SSE,155,10.0,22.0,70,0.00,,,-99.99,,2013-05-20 01:31:00,
2013-05-19 20:42:00,77.0,67.0,-100.00,SSE,155,10.0,22.0,70,0.00,,,-99.99,,2013-05-20 01:42:00,
2013-05-19 20:52:00,77.0,67.0,-100.00,SSE,155,10.0,22.0,70,0.00,,,-99.99,,2013-05-20 01:52:00,
2013-05-19 21:02:00,77.0,67.0,-100.00,SSE,155,10.0,22.0,70,0.00,,,-99.99,,2013-05-20 02:02:00,
2013-05-19 21:11:00,70.0,61.0,-100.00,NW,305,26.0,32.0,74,0.00,,,-99.99,,2013-05-20 02:11:00,
2013-05-19 21:21:00,70.0,61.0,-100.00,NW,305,26.0,32.0,74,0.00,,,-99.99,,2013-05-20 02:21:00,
2013-05-19 21:31:00,70.0,61.0,-100.00,NW,305,26.0,32.0,74,0.00,,,-99.99,,2013-05-20 02:31:00,
2013-05-19 21:42:00,70.0,61.0,-100.00,NW,305,26.0,32.0,74,0.00,,,-99.99,,2013-05-20 02:42:00,
2013-05-19 21:51:00,70.0,61.0,-100.00,NW,305,26.0,32.0,74,0.00,,,-99.99,,2013-05-20 02:51:00,